createdAt,value
2018-08-19T00:00:27.905Z,9.80
2018-08-19T00:02:59.321Z,10.70
2018-08-19T00:05:27.839Z,11.03
2018-08-19T00:07:56.442Z,10.60
2018-08-19T00:10:40.376Z,10.20
2018-08-19T00:13:11.704Z,11.13
2018-08-19T00:15:41.012Z,11.13
2018-08-19T00:18:11.628Z,11.27
2018-08-19T00:20:40.173Z,11.67
2018-08-19T00:23:09.348Z,11.73
2018-08-19T00:25:40.912Z,11.67
2018-08-19T00:28:10.647Z,12.40
2018-08-19T00:30:39.200Z,11.53
2018-08-19T00:33:07.817Z,10.67
2018-08-19T00:35:36.327Z,11.17
2018-08-19T00:38:04.968Z,11.57
2018-08-19T00:40:33.472Z,11.63
2018-08-19T00:43:01.935Z,10.80
2018-08-19T00:45:30.480Z,11.00
2018-08-19T00:47:58.919Z,11.47
2018-08-19T00:50:27.420Z,11.20
2018-08-19T00:52:56.331Z,11.00
2018-08-19T00:55:25.334Z,10.30
2018-08-19T00:57:57.562Z,10.67
2018-08-19T01:00:26.980Z,10.70
2018-08-19T01:02:55.440Z,11.27
2018-08-19T01:05:24.022Z,10.23
2018-08-19T01:07:52.559Z,10.33
2018-08-19T01:10:21.042Z,11.23
2018-08-19T01:12:49.524Z,11.63
2018-08-19T01:15:18.051Z,11.10
2018-08-19T01:17:46.774Z,10.33
2018-08-19T01:20:22.838Z,11.07
2018-08-19T01:22:51.352Z,10.30
2018-08-19T01:25:19.876Z,10.90
2018-08-19T01:27:48.424Z,10.63
2018-08-19T01:30:20.141Z,12.10
2018-08-19T01:32:48.668Z,12.27
2018-08-19T01:35:17.708Z,10.73
2018-08-19T01:37:46.191Z,11.60
2018-08-19T01:40:18.372Z,12.67
2018-08-19T01:42:47.640Z,11.80
2018-08-19T01:45:16.099Z,12.00
2018-08-19T01:47:44.608Z,11.83
2018-08-19T01:50:18.865Z,11.73
2018-08-19T01:52:50.003Z,12.07
2018-08-19T01:55:19.232Z,11.80
2018-08-19T01:57:49.083Z,11.93
2018-08-19T02:00:18.077Z,11.63
2018-08-19T02:03:02.212Z,10.57
2018-08-19T02:05:30.807Z,11.37
2018-08-19T02:08:01.064Z,11.40
2018-08-19T02:10:30.601Z,12.43
2018-08-19T02:12:59.529Z,12.43
2018-08-19T02:15:29.271Z,12.40
2018-08-19T02:17:59.980Z,13.00
2018-08-19T02:20:41.711Z,12.60
2018-08-19T02:23:11.463Z,12.93
2018-08-19T02:25:46.132Z,12.27
2018-08-19T02:28:16.727Z,12.20
2018-08-19T02:30:51.673Z,11.10
2018-08-19T02:33:21.060Z,11.67
2018-08-19T02:36:07.257Z,11.33
2018-08-19T02:38:36.959Z,12.20
2018-08-19T02:43:58.237Z,11.30
2018-08-19T02:46:27.439Z,11.17
2018-08-19T02:48:55.940Z,11.20
2018-08-19T02:51:24.407Z,11.37
2018-08-19T02:53:52.877Z,10.87
2018-08-19T02:56:21.440Z,10.60
2018-08-19T02:58:49.917Z,11.30
2018-08-19T03:01:18.833Z,10.27
2018-08-19T03:03:47.300Z,10.87
2018-08-19T03:06:15.793Z,11.67
2018-08-19T03:08:50.251Z,11.40
2018-08-19T03:11:20.280Z,11.57
2018-08-19T03:13:48.970Z,12.87
2018-08-19T03:16:23.021Z,11.90
2018-08-19T03:18:52.636Z,13.43
2018-08-19T03:21:22.184Z,12.53
2018-08-19T03:23:52.315Z,12.93
2018-08-19T03:26:20.878Z,14.00
2018-08-19T03:28:49.372Z,13.10
2018-08-19T03:31:17.950Z,13.90
2018-08-19T03:33:46.447Z,12.43
2018-08-19T03:36:14.892Z,12.63
2018-08-19T03:38:43.343Z,12.23
2018-08-19T03:41:11.862Z,13.00
2018-08-19T03:43:43.099Z,12.30
2018-08-19T03:46:19.825Z,13.80
2018-08-19T03:48:49.284Z,12.20
2018-08-19T03:51:17.732Z,13.13
2018-08-19T03:53:46.189Z,13.53
2018-08-19T03:56:20.001Z,12.53
2018-08-19T03:58:49.216Z,13.43
2018-08-19T04:01:27.548Z,13.50
2018-08-19T04:03:55.988Z,14.37
2018-08-19T04:06:24.728Z,13.93
2018-08-19T04:08:53.360Z,13.80
2018-08-19T04:11:21.944Z,14.40
2018-08-19T04:13:50.448Z,14.47
2018-08-19T04:16:18.904Z,14.30
2018-08-19T04:18:47.360Z,15.47
2018-08-19T04:21:17.048Z,14.50
2018-08-19T04:23:47.921Z,14.93
2018-08-19T04:26:16.350Z,14.87
2018-08-19T04:28:45.548Z,16.03
2018-08-19T04:31:19.311Z,15.47
2018-08-19T04:33:48.758Z,16.13
2018-08-19T04:36:19.488Z,16.60
2018-08-19T04:38:47.955Z,16.13
2018-08-19T04:41:16.889Z,16.00
2018-08-19T04:43:46.056Z,14.97
2018-08-19T04:46:14.601Z,15.30
2018-08-19T04:48:44.862Z,15.80
2018-08-19T04:51:13.407Z,15.53
2018-08-19T04:53:41.904Z,17.60
2018-08-19T04:56:10.367Z,17.63
2018-08-19T04:58:38.876Z,17.07
2018-08-19T05:01:07.334Z,18.50
2018-08-19T05:03:35.783Z,18.87
2018-08-19T05:06:04.354Z,17.20
2018-08-19T05:08:32.891Z,17.43
2018-08-19T05:11:01.330Z,16.83
2018-08-19T05:13:30.032Z,16.40
2018-08-19T05:15:58.736Z,18.27
2018-08-19T05:18:27.247Z,17.43
2018-08-19T05:21:01.920Z,18.63
2018-08-19T05:23:30.396Z,16.70
2018-08-19T05:25:58.897Z,17.93
2018-08-19T05:28:27.419Z,17.40
2018-08-19T05:30:55.887Z,17.40
2018-08-19T05:33:24.462Z,17.27
2018-08-19T05:35:53.069Z,18.10
2018-08-19T05:38:21.593Z,18.13
2018-08-19T05:41:04.562Z,18.07
2018-08-19T05:43:33.051Z,18.97
2018-08-19T05:46:01.965Z,18.80
2018-08-19T05:48:30.477Z,19.90
2018-08-19T05:50:59.211Z,23.80
2018-08-19T05:53:27.712Z,22.80
2018-08-19T05:55:56.259Z,23.20
2018-08-19T05:58:24.730Z,22.43
2018-08-19T06:00:54.756Z,24.10
2018-08-19T06:03:23.327Z,23.83
2018-08-19T06:05:51.895Z,23.47
2018-08-19T06:08:20.405Z,23.03
2018-08-19T06:10:48.959Z,23.17
2018-08-19T06:13:17.421Z,23.67
2018-08-19T06:15:45.977Z,22.80
2018-08-19T06:18:14.490Z,22.83
2018-08-19T06:20:43.004Z,23.03
2018-08-19T06:23:11.512Z,22.70
2018-08-19T06:25:39.996Z,21.47
2018-08-19T06:28:08.537Z,23.33
2018-08-19T06:30:37.091Z,22.73
2018-08-19T06:33:05.568Z,22.67
2018-08-19T06:35:34.053Z,21.90
2018-08-19T06:38:02.547Z,21.53
2018-08-19T06:40:31.149Z,23.37
2018-08-19T06:42:59.617Z,23.40
2018-08-19T06:45:28.067Z,22.97
2018-08-19T06:47:56.576Z,23.47
2018-08-19T06:50:28.504Z,22.27
2018-08-19T06:52:57.428Z,23.37
2018-08-19T06:55:26.035Z,23.73
2018-08-19T06:57:57.032Z,21.87
2018-08-19T07:00:26.812Z,22.17
2018-08-19T07:02:56.475Z,21.93
2018-08-19T07:05:24.971Z,21.63
2018-08-19T07:07:53.558Z,21.70
2018-08-19T07:10:29.584Z,21.50
2018-08-19T07:13:14.784Z,21.00
2018-08-19T07:15:44.440Z,21.80
2018-08-19T07:18:14.431Z,21.17
2018-08-19T07:20:43.876Z,22.23
2018-08-19T07:23:12.943Z,23.13
2018-08-19T07:25:43.080Z,23.07
2018-08-19T07:28:12.563Z,21.70
2018-08-19T07:30:41.582Z,21.37
2018-08-19T07:33:10.255Z,22.30
2018-08-19T07:35:38.818Z,21.87
2018-08-19T07:38:07.370Z,21.83
2018-08-19T07:40:35.838Z,21.07
2018-08-19T07:43:04.357Z,22.60
2018-08-19T07:45:32.817Z,21.43
2018-08-19T07:48:01.364Z,20.47
2018-08-19T07:50:29.864Z,19.60
2018-08-19T07:52:58.396Z,20.70
2018-08-19T07:55:26.893Z,19.97
2018-08-19T07:57:55.360Z,19.17
2018-08-19T08:00:29.304Z,18.83
2018-08-19T08:02:57.793Z,18.10
2018-08-19T08:05:32.286Z,18.10
2018-08-19T08:08:00.758Z,18.23
2018-08-19T08:10:29.332Z,17.93
2018-08-19T08:13:03.172Z,17.53
2018-08-19T08:15:31.798Z,16.67
2018-08-19T08:18:00.294Z,16.97
2018-08-19T08:20:28.811Z,14.57
2018-08-19T08:22:57.496Z,14.43
2018-08-19T08:25:25.988Z,15.10
2018-08-19T08:27:54.495Z,15.37
2018-08-19T08:30:22.980Z,14.83
2018-08-19T08:32:52.672Z,14.70
2018-08-19T08:35:21.228Z,13.07
2018-08-19T08:37:49.740Z,14.07
2018-08-19T08:40:18.389Z,14.17
2018-08-19T08:42:46.946Z,13.20
2018-08-19T08:45:19.615Z,13.57
2018-08-19T08:47:48.163Z,13.73
2018-08-19T08:50:16.652Z,12.90
2018-08-19T08:52:45.472Z,11.40
2018-08-19T08:55:14.359Z,12.53
2018-08-19T08:57:42.928Z,12.70
2018-08-19T09:00:12.873Z,12.30
2018-08-19T09:02:41.380Z,12.00
2018-08-19T09:05:11.291Z,10.77
2018-08-19T09:07:40.585Z,9.33
2018-08-19T09:10:10.791Z,10.30
2018-08-19T09:12:48.317Z,10.63
2018-08-19T09:15:16.883Z,11.10
2018-08-19T09:17:45.424Z,10.93
2018-08-19T09:20:14.019Z,11.50
2018-08-19T09:22:43.423Z,12.57
2018-08-19T09:25:12.228Z,13.40
2018-08-19T09:27:41.540Z,12.33
2018-08-19T09:30:12.222Z,11.23
2018-08-19T09:32:58.857Z,11.27
2018-08-19T09:35:30.517Z,11.60
2018-08-19T09:38:14.536Z,12.60
2018-08-19T09:40:43.494Z,11.20
2018-08-19T09:43:12.264Z,13.47
2018-08-19T09:45:41.063Z,14.07
2018-08-19T09:48:10.123Z,13.93
2018-08-19T09:50:39.428Z,15.70
2018-08-19T09:53:08.046Z,14.90
2018-08-19T09:55:41.866Z,15.03
2018-08-19T09:58:14.910Z,15.07
2018-08-19T10:00:48.762Z,13.17
2018-08-19T10:03:17.611Z,12.97
2018-08-19T10:05:46.152Z,15.43
2018-08-19T10:08:14.752Z,15.90
2018-08-19T10:10:43.345Z,15.97
2018-08-19T10:13:12.016Z,15.17
2018-08-19T10:15:40.492Z,14.37
2018-08-19T10:18:09.908Z,14.13
2018-08-19T10:20:38.455Z,15.07
2018-08-19T10:23:07.058Z,14.07
2018-08-19T10:25:35.632Z,11.53
2018-08-19T10:28:04.110Z,11.53
2018-08-19T10:30:32.606Z,14.67
2018-08-19T10:33:07.300Z,16.70
2018-08-19T10:35:36.055Z,17.17
2018-08-19T10:38:05.132Z,16.10
2018-08-19T10:40:33.816Z,15.27
2018-08-19T10:43:05.727Z,12.10
2018-08-19T10:45:41.208Z,12.03
2018-08-19T10:48:13.483Z,14.13
2018-08-19T10:50:41.977Z,13.72
2018-08-19T10:53:16.508Z,12.47
2018-08-19T10:55:46.240Z,12.07
2018-08-19T10:58:14.768Z,12.47
2018-08-19T11:00:43.357Z,11.93
2018-08-19T11:03:17.227Z,11.93
2018-08-19T11:05:46.736Z,10.88
2018-08-19T11:08:15.218Z,12.35
2018-08-19T11:10:43.697Z,11.30
2018-08-19T11:13:12.285Z,11.50
2018-08-19T11:15:42.492Z,12.65
2018-08-19T11:18:23.442Z,12.68
2018-08-19T11:20:54.671Z,11.95
2018-08-19T11:23:24.397Z,10.48
2018-08-19T11:25:53.988Z,10.85
2018-08-19T11:28:51.245Z,11.30
2018-08-19T11:31:25.770Z,11.55
2018-08-19T11:33:56.534Z,11.80
2018-08-19T11:36:31.347Z,10.70
2018-08-19T11:38:59.996Z,9.30
2018-08-19T11:41:32.194Z,10.25
2018-08-19T11:44:08.736Z,9.90
2018-08-19T11:46:37.385Z,8.93
2018-08-19T11:49:17.544Z,9.75
2018-08-19T11:52:03.976Z,9.38
2018-08-19T11:54:33.293Z,10.60
2018-08-19T11:57:07.770Z,9.38
2018-08-19T11:59:37.441Z,9.15
2018-08-19T12:02:09.313Z,9.40
2018-08-19T12:04:37.807Z,8.95
2018-08-19T12:07:06.342Z,9.25
2018-08-19T12:09:34.875Z,8.48
2018-08-19T12:12:03.351Z,10.13
2018-08-19T12:14:35.036Z,9.15
2018-08-19T12:17:06.442Z,10.23
2018-08-19T12:19:37.490Z,9.33
2018-08-19T12:22:06.392Z,9.08
2018-08-19T12:24:39.940Z,8.90
2018-08-19T12:27:10.088Z,9.33
2018-08-19T12:29:39.784Z,8.88
2018-08-19T12:32:14.583Z,9.33
2018-08-19T12:34:45.044Z,9.33
2018-08-19T12:37:14.583Z,9.83
2018-08-19T12:39:43.115Z,8.98
2018-08-19T12:42:11.714Z,8.93
2018-08-19T12:44:40.550Z,9.08
2018-08-19T12:47:13.438Z,9.10
2018-08-19T12:49:43.379Z,9.05
2018-08-19T12:52:14.501Z,8.85
2018-08-19T12:54:45.496Z,8.70
2018-08-19T12:57:14.564Z,9.15
2018-08-19T12:59:43.118Z,8.28
2018-08-19T13:02:11.596Z,8.23
2018-08-19T13:04:40.044Z,8.43
2018-08-19T13:07:10.969Z,8.65
2018-08-19T13:09:39.635Z,8.63
2018-08-19T13:12:10.551Z,8.08
2018-08-19T13:14:39.058Z,8.40
2018-08-19T13:17:07.768Z,8.28
2018-08-19T13:19:36.237Z,8.53
2018-08-19T13:22:04.896Z,8.80
2018-08-19T13:24:37.480Z,7.90
2018-08-19T13:27:06.942Z,7.47
2018-08-19T13:29:36.168Z,7.33
2018-08-19T13:32:04.696Z,8.13
2018-08-19T13:34:33.180Z,6.97
2018-08-19T13:37:01.919Z,7.42
2018-08-19T13:39:30.434Z,6.92
2018-08-19T13:41:58.876Z,7.33
2018-08-19T13:44:27.457Z,7.45
2018-08-19T13:46:55.978Z,7.20
2018-08-19T13:49:27.718Z,6.55
2018-08-19T13:51:59.468Z,6.10
2018-08-19T13:54:27.949Z,6.35
2018-08-19T13:56:56.524Z,6.60
2018-08-19T13:59:25.017Z,6.87
2018-08-19T14:01:53.463Z,6.35
2018-08-19T14:04:22.007Z,6.22
2018-08-19T14:06:50.448Z,6.55
2018-08-19T14:09:18.916Z,6.40
2018-08-19T14:11:47.413Z,5.72
2018-08-19T14:14:15.922Z,6.10
2018-08-19T14:16:44.426Z,6.05
2018-08-19T14:19:12.936Z,6.17
2018-08-19T14:21:41.423Z,5.95
2018-08-19T14:24:09.871Z,6.30
2018-08-19T14:26:38.328Z,5.80
2018-08-19T14:29:06.800Z,7.10
2018-08-19T14:31:35.257Z,6.40
2018-08-19T14:34:03.777Z,6.83
2018-08-19T14:36:32.219Z,6.10
2018-08-19T14:39:00.663Z,6.53
2018-08-19T14:41:29.180Z,6.53
2018-08-19T14:44:01.313Z,6.67
2018-08-19T14:46:30.641Z,6.58
2018-08-19T14:49:00.504Z,7.08
2018-08-19T14:51:31.896Z,6.90
2018-08-19T14:54:14.368Z,6.60
2018-08-19T14:56:43.132Z,6.85
2018-08-19T14:59:12.420Z,6.70
2018-08-19T15:01:40.905Z,7.30
2018-08-19T15:04:12.651Z,8.10
2018-08-19T15:06:41.729Z,6.95
2018-08-19T15:09:13.496Z,7.25
2018-08-19T15:11:41.953Z,7.42
2018-08-19T15:14:16.749Z,7.75
2018-08-19T15:16:47.628Z,7.65
2018-08-19T15:19:16.128Z,8.33
2018-08-19T15:21:54.658Z,8.15
2018-08-19T15:24:23.323Z,8.25
2018-08-19T15:26:51.835Z,8.90
2018-08-19T15:29:25.652Z,9.70
2018-08-19T15:31:54.277Z,8.73
2018-08-19T15:34:22.759Z,8.20
2018-08-19T15:36:51.890Z,9.25
2018-08-19T15:39:22.863Z,8.88
2018-08-19T15:41:51.377Z,8.73
2018-08-19T15:44:20.713Z,9.18
2018-08-19T15:46:49.216Z,8.88
2018-08-19T15:49:20.750Z,9.30
2018-08-19T15:51:49.288Z,9.70
2018-08-19T15:54:18.058Z,8.98
2018-08-19T15:56:46.624Z,8.75
2018-08-19T15:59:15.246Z,8.95
2018-08-19T16:01:43.958Z,9.15
2018-08-19T16:04:16.940Z,8.58
2018-08-19T16:06:47.088Z,8.85
2018-08-19T16:09:17.753Z,8.98
2018-08-19T16:11:46.888Z,8.35
2018-08-19T16:14:21.329Z,8.35
2018-08-19T16:16:49.879Z,8.68
2018-08-19T16:19:18.369Z,8.68
2018-08-19T16:21:49.161Z,8.48
2018-08-19T16:24:17.728Z,8.78
2018-08-19T16:26:46.254Z,8.30
2018-08-19T16:29:14.799Z,7.83
2018-08-19T16:31:43.447Z,7.53
2018-08-19T16:34:12.961Z,7.17
2018-08-19T16:36:41.479Z,7.97
2018-08-19T16:39:12.631Z,6.67
2018-08-19T16:41:41.118Z,7.85
2018-08-19T16:44:10.022Z,7.53
2018-08-19T16:46:38.810Z,7.35
2018-08-19T16:49:07.503Z,6.78
2018-08-19T16:51:36.051Z,7.40
2018-08-19T16:54:04.667Z,7.12
2018-08-19T16:56:33.195Z,7.72
2018-08-19T16:59:01.778Z,7.22
2018-08-19T17:01:30.293Z,7.62
2018-08-19T17:03:58.777Z,7.15
2018-08-19T17:06:27.315Z,6.92
2018-08-19T17:08:55.861Z,7.03
2018-08-19T17:11:24.388Z,6.80
2018-08-19T17:13:52.893Z,7.08
2018-08-19T17:16:21.404Z,6.17
2018-08-19T17:18:49.996Z,7.22
2018-08-19T17:21:18.576Z,6.92
2018-08-19T17:23:49.236Z,7.45
2018-08-19T17:26:24.856Z,6.55
2018-08-19T17:28:53.553Z,6.40
2018-08-19T17:31:22.324Z,6.70
2018-08-19T17:33:50.931Z,6.50
2018-08-19T17:36:25.615Z,7.03
2018-08-19T17:38:54.125Z,6.35
2018-08-19T17:41:22.669Z,6.55
2018-08-19T17:43:51.177Z,6.40
2018-08-19T17:46:20.987Z,6.78
2018-08-19T17:48:49.808Z,6.22
2018-08-19T17:51:32.056Z,6.30
2018-08-19T17:54:00.594Z,6.35
2018-08-19T17:56:29.207Z,6.30
2018-08-19T17:58:57.765Z,6.65
2018-08-19T18:01:26.296Z,6.08
2018-08-19T18:03:54.848Z,6.07
2018-08-19T18:06:23.424Z,7.00
2018-08-19T18:08:52.774Z,6.17
2018-08-19T18:11:21.848Z,5.85
2018-08-19T18:13:50.453Z,6.35
2018-08-19T18:16:19.067Z,6.00
2018-08-19T18:18:48.451Z,6.20
2018-08-19T18:21:17.113Z,5.90
2018-08-19T18:23:48.197Z,5.92
2018-08-19T18:26:16.821Z,5.40
2018-08-19T18:28:47.930Z,6.17
2018-08-19T18:31:22.992Z,6.33
2018-08-19T18:33:57.921Z,5.72
2018-08-19T18:36:27.697Z,6.83
2018-08-19T18:38:56.652Z,5.93
2018-08-19T18:41:30.189Z,6.60
2018-08-19T18:44:01.935Z,6.33
2018-08-19T18:46:30.925Z,6.30
2018-08-19T18:49:07.627Z,6.53
2018-08-19T18:51:36.160Z,6.92
2018-08-19T18:54:04.758Z,6.83
2018-08-19T18:56:33.419Z,6.53
2018-08-19T18:59:01.951Z,6.00
2018-08-19T19:01:30.456Z,6.43
2018-08-19T19:03:59.021Z,6.53
2018-08-19T19:06:27.520Z,6.83
2018-08-19T19:08:56.054Z,6.47
2018-08-19T19:11:24.759Z,6.30
2018-08-19T19:13:53.275Z,7.00
2018-08-19T19:16:27.787Z,6.90
2018-08-19T19:18:56.299Z,7.60
2018-08-19T19:21:24.788Z,7.27
2018-08-19T19:23:53.289Z,6.93
2018-08-19T19:26:27.637Z,7.07
2018-08-19T19:28:57.215Z,6.63
2018-08-19T19:31:25.773Z,7.20
2018-08-19T19:34:00.989Z,6.50
2018-08-19T19:36:30.184Z,6.63
2018-08-19T19:38:59.150Z,6.50
2018-08-19T19:41:31.835Z,6.40
2018-08-19T19:44:12.490Z,6.87
2018-08-19T19:46:41.068Z,6.70
2018-08-19T19:49:09.590Z,6.80
2018-08-19T19:51:38.365Z,6.87
2018-08-19T19:54:07.108Z,6.90
2018-08-19T19:56:35.720Z,6.13
2018-08-19T19:59:04.224Z,6.90
2018-08-19T20:01:33.991Z,6.40
2018-08-19T20:04:03.318Z,6.27
2018-08-19T20:06:31.867Z,6.90
